Station info - map view · info · telemetry · weather · raw · status · beacons · messages · bulletins · browse · moving · my account
Callsign, ship name or locator: Clear       
It is possible to search using wildcards (*?) after a prefix. Example: OH*
APRS station KC3BVR-3 - show graphs
Map loading...
Comment: 146.520MHz
Mic-E message: Off duty
Location: 40°28.41' N 75°55.45' W - locator FN20AL93CP - show map - static map
5.2 miles North bearing 346° from South Temple, Berks County, Pennsylvania, United States [?]
9.2 miles Northwest bearing 310° from Oley, Berks County, Pennsylvania, United States
24.6 miles West bearing 248° from Allentown, Lehigh County, Pennsylvania, United States
53.9 miles Northwest bearing 312° from Philadelphia, Philadelphia County, Pennsylvania, United States
Last position: 2017-11-12 14:58:00 EST (11d 6h13m ago)
2017-11-12 14:58:00 EST local time at South Temple, United States [?]
Altitude: 302 ft
Course: 323°
Speed: 37 MPH
Device: Yaesu: FTM-400DR (rig)
Last path: KC3BVR-3>TPRX4Q via qAR,N3XKU
Positions stored: 1447
Other SSIDs: KC3BVR-11 KC3BVR-2
Stations near current position of KC3BVR-3 - show more
callsign distance last heard - EST      callsign distance last heard - EST
N3XKU2.8 miles 112°2017-11-23 21:07:51 K3ADA-53.0 miles 129°2017-11-15 09:54:25
K3ADA-93.0 miles 129°2017-11-21 05:55:51 NQ3U-104.7 miles 266°2017-11-23 21:09:51
NQ3U C4.7 miles 267°2017-11-16 05:24:50 NQ3U-C4.7 miles 267°2017-11-16 05:25:00
K3TI-B4.7 miles 267°2017-11-16 05:24:58 K3TI-C4.7 miles 267°2017-11-16 05:24:58
K3TI B4.7 miles 267°2017-11-16 05:25:13 K3TI C4.7 miles 267°2017-11-16 05:25:13
KB3VNG5.3 miles 173°2017-11-23 21:05:18 EW22306.3 miles 355°2017-11-23 21:08:57
WE3C6.4 miles 130°2017-11-23 21:05:44 N3YMW7.0 miles 137°2017-11-23 19:08:14
NQ3U-97.7 miles 324°2017-11-12 11:27:45 KRDG7.7 miles 197°2017-11-19 03:00:53
DW56958.4 miles 73°2017-11-23 00:31:11 EW31908.8 miles 172°2017-11-23 21:10:19
N3MYB9.1 miles 103°2017-11-23 21:09:10 EW84459.3 miles 136°2017-11-23 21:07:40
Stations which heard KC3BVR-3 directly on radio –
callsign pkts first heard - EST last heard longest (tx => rx) longest at - EST
K3ZMC-1 1 2017-11-10 07:37:41 2017-11-10 07:37:41 FN20BF > FN20DH 13.3 miles 56° 2017-11-10 07:37:41
W3UD-3 5 2017-11-10 08:50:04 2017-11-12 13:26:17 FM29DP > FM29CQ 3.9 miles 348° 2017-11-12 13:10:19
N3KTX-8 4 2017-11-10 10:58:13 2017-11-12 11:16:54 FM28JL > FM28LK 11.3 miles 119° 2017-11-10 10:58:13
N3XJT-1 16 2017-11-10 08:42:28 2017-11-12 13:19:05 FM29EJ > FM29AN 20.1 miles 305° 2017-11-10 09:33:51
N3KNT-1 19 2017-11-10 09:53:54 2017-11-12 11:56:38 FM29GC > FM28EM 43.4 miles 192° 2017-11-10 09:53:54
K4BW-12 11 2017-11-10 12:03:57 2017-11-12 10:25:58 FM27AC > FM27DR 46.4 miles 21° 2017-11-12 09:19:57
K4BW-13 2 2017-11-10 12:32:24 2017-11-12 09:46:30 FM27CM > FM27AI 12.7 miles 208° 2017-11-10 12:32:24
KB3RNL-1 1 2017-11-12 14:22:01 2017-11-12 14:22:01 FN20AC > FN20BC 2.4 miles 116° 2017-11-12 14:22:01
KB1EJH-1 26 2017-11-10 10:07:59 2017-11-12 12:04:04 FM28GW > FM28HQ 17.5 miles 174° 2017-11-10 10:07:59
KB1EJH-15 9 2017-11-10 10:18:47 2017-11-12 12:22:19 FM28IN > FM28HU 22.5 miles 344° 2017-11-12 11:27:37
KE4KDY-5 1 2017-11-12 08:59:05 2017-11-12 08:59:05 FM16WV > FM16WS 9.1 miles 173° 2017-11-12 08:59:05
N3XKU 3 2017-11-12 14:41:09 2017-11-12 14:58:00 FN20AI > FN20BK 9.0 miles 26° 2017-11-12 14:41:09
N3TJJ-11 10 2017-11-10 07:48:54 2017-11-12 14:48:52 FN20AJ > FM19UV 39.8 miles 205° 2017-11-12 14:48:52
W4WFF-5 1 2017-11-10 11:41:18 2017-11-10 11:41:18 FM28FB > FM27GW 9.8 miles 157° 2017-11-10 11:41:18
KB3LVB-1 8 2017-11-10 08:35:43 2017-11-12 13:36:17 FM29CR > FM29BS 2.9 miles 311° 2017-11-10 08:44:02
N3IP 1 2017-11-10 08:46:31 2017-11-10 08:46:31 FM29BS > FM29GX 27.4 miles 61° 2017-11-10 08:46:31
KB1EJH-13 2 2017-11-10 10:25:47 2017-11-12 11:54:37 FM28GU > FM28IT 6.7 miles 114° 2017-11-10 10:25:47
NR3I 7 2017-11-10 08:53:51 2017-11-12 13:14:08 FM29DO > FM29ER 11.5 miles 37° 2017-11-10 09:07:52
KQ4ET-5 1 2017-11-12 08:47:10 2017-11-12 08:47:10 FM16XU > FM16XU 1.4 miles 113° 2017-11-12 08:47:10
W3AD-1 1 2017-11-10 07:50:05 2017-11-10 07:50:05 FN20BC > FN10TF 26.4 miles 292° 2017-11-10 07:50:05
NQ3U-10 12 2017-11-10 07:21:50 2017-11-12 14:56:00 FN20BH > FN10XL 13.0 miles 333° 2017-11-10 07:31:40
N4WFP-5 5 2017-11-10 13:28:52 2017-11-12 09:04:14 FM17WA > FM16UW 9.5 miles 248° 2017-11-10 13:28:52
W4HZL-1 12 2017-11-10 12:57:54 2017-11-12 09:42:25 FM16WX > FM17UI 26.8 miles 338° 2017-11-12 09:07:44
N3WAX-3 11 2017-11-10 08:05:56 2017-11-12 13:40:22 FM29AX > FM29BU 10.0 miles 166° 2017-11-10 08:05:56
N3FYI-2 22 2017-11-10 07:41:41 2017-11-12 14:19:08 FM29AU > FN20BB 13.4 miles 9° 2017-11-12 13:44:53
K3PDR-3 1 2017-11-12 14:26:04 2017-11-12 14:26:04 FN20BD > FN20JB 38.3 miles 97° 2017-11-12 14:26:04
WB3CVN-2 5 2017-11-10 09:08:38 2017-11-12 13:08:50 FM29DO > FM29DO 2.6 miles 40° 2017-11-12 13:04:56

Only position packets which were originated by the station are shown here. The range statistics show some extra long hops, because some digipeaters do not correctly add themselves to the digipeater path. Please check the raw packets.
About this site
This page shows real-time information collected from the Automatic Position Reporting System Internet network (APRS-IS). APRS is used by amateur (ham) radio operators to transmit real-time position information, weather data, telemetry and messages over the radio. A vehicle equipped with a GPS receiver, a VHF transmitter or HF transceiver and a small computer device called a tracker transmits it's location, speed and course in a small data packet, which is then received by a nearby iGate receiving site which forwards the packet on the Internet. Systems connected to the Internet can send information on the APRS-IS without a radio transmitter, or collect and display information transmitted anywhere in the world.
FAQ · Blog · Discussion group · Linking to aprs.fi · AIS sites · Service status · Database statistics · Advertising on aprs.fi · Technical details · API · Change log · Planned changes · Credits and thanks · Terms Of Service · iPhone/iPad APRS